Time;durP1;ratioP1;P1;durP2;ratioP2;P2;SDS_P1;SDS_P2;PMS_P1;PMS_P2;Temp;Humidity;BMP_temperature;BMP_pressure;BME280_temperature;BME280_humidity;BME280_pressure;Samples;Min_cycle;Max_cycle;Signal;HPM_P1;HPM_P2
2022/05/05 00:01:58;;;;;;;22.13;8.52;;;9.60;99.90;;;;;;5056959;28;20041;-65
2022/05/05 00:04:24;;;;;;;14.88;8.65;;;9.50;99.90;;;;;;5056840;28;20037;-66
2022/05/05 00:06:50;;;;;;;17.50;8.32;;;9.50;99.90;;;;;;5038826;28;20187;-64
2022/05/05 00:09:15;;;;;;;13.15;8.38;;;9.50;99.90;;;;;;5056594;28;20049;-66
2022/05/05 00:14:28;;;;;;;17.27;9.88;;;9.50;99.90;;;;;;5056772;28;20045;-66
2022/05/05 00:17:01;;;;;;;19.05;8.65;;;9.50;99.90;;;;;;5056637;28;20059;-67
2022/05/05 00:19:28;;;;;;;13.15;8.18;;;9.50;99.90;;;;;;5056522;28;20371;-65
2022/05/05 00:21:54;;;;;;;18.17;8.55;;;9.40;99.90;;;;;;5036965;28;20045;-67
2022/05/05 00:24:20;;;;;;;14.75;9.52;;;9.40;99.90;;;;;;5056484;28;20037;-68
2022/05/05 00:26:45;;;;;;;17.95;8.93;;;9.40;99.90;;;;;;5056426;28;20110;-66
2022/05/05 00:29:11;;;;;;;12.95;7.60;;;9.40;99.90;;;;;;5056534;28;20354;-65
2022/05/05 00:31:37;;;;;;;18.73;9.32;;;9.30;99.90;;;;;;5038409;28;20068;-68
2022/05/05 00:34:03;;;;;;;16.30;8.18;;;9.30;99.90;;;;;;5055551;28;20048;-68
2022/05/05 00:36:28;;;;;;;16.42;8.88;;;9.30;99.90;;;;;;5055543;28;20392;-66
2022/05/05 00:38:54;;;;;;;12.90;8.10;;;9.30;99.90;;;;;;5056074;28;20344;-66
2022/05/05 00:41:19;;;;;;;19.90;9.52;;;9.20;99.90;;;;;;5056253;28;20402;-67
2022/05/05 00:43:45;;;;;;;14.95;8.68;;;9.20;99.90;;;;;;5055925;28;20048;-65
2022/05/05 00:46:11;;;;;;;16.80;9.85;;;9.20;99.90;;;;;;5055843;28;20087;-65
2022/05/05 00:48:36;;;;;;;19.23;9.05;;;9.20;99.90;;;;;;5054064;28;20037;-66
2022/05/05 00:51:02;;;;;;;12.75;8.68;;;9.20;99.90;;;;;;5055753;28;20053;-65
2022/05/05 00:53:27;;;;;;;16.83;10.98;;;9.10;99.90;;;;;;5055959;28;20444;-66
2022/05/05 00:56:02;;;;;;;18.65;9.38;;;9.10;99.90;;;;;;5055683;28;20201;-65
2022/05/05 00:58:28;;;;;;;20.55;10.00;;;9.10;99.90;;;;;;5055325;28;20064;-66
2022/05/05 01:00:54;;;;;;;14.18;8.98;;;9.10;99.90;;;;;;5055477;28;20045;-66
2022/05/05 01:03:21;;;;;;;17.88;9.05;;;9.10;99.90;;;;;;5054951;28;20037;-67
2022/05/05 01:05:47;;;;;;;14.93;9.13;;;9.00;99.90;;;;;;5055696;28;20045;-66
2022/05/05 01:08:12;;;;;;;12.65;9.30;;;9.00;99.90;;;;;;5055364;28;20041;-66
2022/05/05 01:10:38;;;;;;;14.70;9.45;;;9.00;99.90;;;;;;5055344;28;20033;-67
2022/05/05 01:13:03;;;;;;;14.75;8.90;;;8.90;99.90;;;;;;5037769;28;20410;-68
2022/05/05 01:15:30;;;;;;;12.77;8.93;;;8.90;99.90;;;;;;5055421;28;20076;-67
2022/05/05 01:17:56;;;;;;;16.90;10.30;;;8.80;99.90;;;;;;5054433;28;20041;-66
2022/05/05 01:20:22;;;;;;;16.38;9.40;;;8.90;99.90;;;;;;5055340;28;20049;-66
2022/05/05 01:22:49;;;;;;;14.70;9.60;;;8.80;99.90;;;;;;5055243;28;20045;-67
2022/05/05 01:28:11;;;;;;;18.48;9.57;;;8.80;99.90;;;;;;5054838;28;20056;-66
2022/05/05 01:30:45;;;;;;;15.43;9.68;;;8.70;99.90;;;;;;5054711;28;20059;-66
2022/05/05 01:33:13;;;;;;;14.82;9.77;;;8.70;99.90;;;;;;5053731;28;20375;-65
2022/05/05 01:35:39;;;;;;;15.32;10.07;;;8.70;99.90;;;;;;5055218;28;20409;-67
2022/05/05 01:38:08;;;;;;;20.15;9.88;;;8.60;99.90;;;;;;5055144;28;20356;-66
2022/05/05 01:40:36;;;;;;;17.25;10.13;;;8.60;99.90;;;;;;5055104;28;20040;-66
2022/05/05 01:43:02;;;;;;;14.57;9.30;;;8.70;99.90;;;;;;5054728;28;20048;-65
2022/05/05 01:45:29;;;;;;;17.98;9.88;;;8.70;99.90;;;;;;5054720;28;20041;-65
2022/05/05 01:47:54;;;;;;;17.50;9.70;;;8.70;99.90;;;;;;5052279;28;20045;-66
2022/05/05 01:50:20;;;;;;;20.85;10.85;;;8.60;99.90;;;;;;5034823;28;20128;-66
2022/05/05 01:52:47;;;;;;;16.63;11.52;;;8.60;99.90;;;;;;5014493;28;20136;-67
2022/05/05 01:55:13;;;;;;;16.20;10.15;;;8.50;99.90;;;;;;5035080;28;20052;-65
2022/05/05 01:57:38;;;;;;;17.40;10.48;;;8.50;99.90;;;;;;5034764;28;20367;-66
2022/05/05 02:00:04;;;;;;;16.67;10.60;;;8.50;99.90;;;;;;5035590;28;20060;-67
2022/05/05 02:02:30;;;;;;;17.77;10.18;;;8.50;99.90;;;;;;5054893;28;20063;-66
2022/05/05 02:04:56;;;;;;;16.08;10.68;;;8.50;99.90;;;;;;5054670;28;20041;-66
2022/05/05 02:07:21;;;;;;;15.85;10.32;;;8.50;99.90;;;;;;5037318;28;20459;-67
2022/05/05 02:09:47;;;;;;;16.98;10.40;;;8.40;99.90;;;;;;5054384;28;20067;-66
2022/05/05 02:12:12;;;;;;;18.98;9.98;;;8.40;99.90;;;;;;5054841;28;20052;-66
2022/05/05 02:14:38;;;;;;;16.45;9.43;;;8.40;99.90;;;;;;5054559;28;20058;-66
2022/05/05 02:17:04;;;;;;;13.32;9.20;;;8.40;99.90;;;;;;5036328;28;20061;-65
2022/05/05 02:19:29;;;;;;;16.65;11.27;;;8.30;99.90;;;;;;5051266;28;20045;-67
2022/05/05 02:21:55;;;;;;;16.17;10.68;;;8.30;99.90;;;;;;5054396;28;20352;-66
2022/05/05 02:24:20;;;;;;;17.88;10.18;;;8.30;99.90;;;;;;5037007;28;20493;-68
2022/05/05 02:26:46;;;;;;;18.50;10.63;;;8.30;99.90;;;;;;5051142;28;20371;-67
2022/05/05 02:29:11;;;;;;;15.30;10.05;;;8.40;99.90;;;;;;5054469;28;20045;-66
2022/05/05 02:31:37;;;;;;;15.77;10.70;;;8.30;99.90;;;;;;5052906;28;20110;-66
2022/05/05 02:34:08;;;;;;;16.77;10.50;;;8.30;99.90;;;;;;5054497;28;20399;-66
2022/05/05 02:39:21;;;;;;;12.10;9.85;;;8.20;99.90;;;;;;5054327;28;20135;-66
2022/05/05 02:41:46;;;;;;;18.13;10.48;;;8.20;99.90;;;;;;5036956;28;20127;-66
2022/05/05 02:44:12;;;;;;;14.20;10.30;;;8.20;99.90;;;;;;5053724;28;20057;-65
2022/05/05 02:46:37;;;;;;;20.08;11.65;;;8.20;99.90;;;;;;5054044;28;20041;-65
2022/05/05 02:49:03;;;;;;;19.90;11.18;;;8.20;99.90;;;;;;5036658;28;20045;-66
2022/05/05 02:51:29;;;;;;;17.00;9.70;;;8.20;99.90;;;;;;5053602;28;20094;-66
2022/05/05 02:56:38;;;;;;;17.02;10.77;;;8.20;99.90;;;;;;5054283;28;20053;-64
2022/05/05 02:59:04;;;;;;;14.13;10.80;;;8.10;99.90;;;;;;5035842;28;20049;-65
2022/05/05 03:01:29;;;;;;;17.00;11.27;;;8.10;99.90;;;;;;5054481;28;20052;-65
2022/05/05 03:03:55;;;;;;;17.92;10.95;;;8.10;99.90;;;;;;5054605;28;20052;-66
2022/05/05 03:06:20;;;;;;;16.88;11.02;;;8.10;99.90;;;;;;5053991;28;20379;-66
2022/05/05 03:08:46;;;;;;;15.88;10.93;;;8.10;99.90;;;;;;5054159;28;20443;-65
2022/05/05 03:11:12;;;;;;;17.85;10.98;;;8.10;99.90;;;;;;5055765;28;20037;-65
2022/05/05 03:13:37;;;;;;;20.08;11.05;;;8.10;99.90;;;;;;5056546;28;20057;-66
2022/05/05 03:16:04;;;;;;;17.42;11.20;;;8.00;99.90;;;;;;5057678;28;20459;-66
2022/05/05 03:18:29;;;;;;;19.65;11.60;;;8.00;99.90;;;;;;5054622;28;20048;-66
2022/05/05 03:20:55;;;;;;;24.92;11.18;;;8.00;99.90;;;;;;5056979;28;20060;-65
2022/05/05 03:23:21;;;;;;;18.75;10.43;;;8.00;99.90;;;;;;5057425;28;20045;-65
2022/05/05 03:25:46;;;;;;;17.90;10.48;;;8.00;99.90;;;;;;5040227;28;20057;-64
2022/05/05 03:28:13;;;;;;;13.27;10.40;;;8.00;99.90;;;;;;5056565;28;20047;-63
2022/05/05 03:30:40;;;;;;;18.33;10.68;;;8.00;99.90;;;;;;5057364;28;20052;-65
2022/05/05 03:33:08;;;;;;;16.13;11.15;;;8.00;99.90;;;;;;5056706;28;20116;-66
2022/05/05 03:35:34;;;;;;;18.20;10.75;;;7.90;99.90;;;;;;5056934;28;20478;-65
2022/05/05 03:38:00;;;;;;;18.23;10.23;;;7.90;99.90;;;;;;5057348;28;20049;-65
2022/05/05 03:40:25;;;;;;;19.30;10.63;;;7.90;99.90;;;;;;5040013;28;20045;-66
2022/05/05 03:42:51;;;;;;;20.05;11.32;;;7.90;99.90;;;;;;5056489;28;20102;-64
2022/05/05 03:45:17;;;;;;;12.55;9.88;;;7.90;99.90;;;;;;5056895;28;20041;-67
2022/05/05 03:47:42;;;;;;;16.02;10.80;;;7.90;99.90;;;;;;5056475;28;20051;-65
2022/05/05 03:50:08;;;;;;;17.63;11.05;;;7.90;99.90;;;;;;5056634;28;20057;-67
2022/05/05 03:52:34;;;;;;;18.30;10.02;;;7.80;99.90;;;;;;5057002;28;20048;-66
2022/05/05 03:55:00;;;;;;;20.48;10.77;;;7.90;99.90;;;;;;5057085;28;20041;-64
2022/05/05 03:57:25;;;;;;;19.63;10.82;;;7.80;99.90;;;;;;5055576;28;20120;-64
2022/05/05 03:59:51;;;;;;;17.80;10.80;;;7.80;99.90;;;;;;5057011;28;20052;-64
2022/05/05 04:02:17;;;;;;;15.70;10.50;;;7.90;99.90;;;;;;5056780;28;20052;-64
2022/05/05 04:04:42;;;;;;;15.20;10.75;;;7.80;99.90;;;;;;5056846;28;20118;-66
2022/05/05 04:07:08;;;;;;;16.98;10.20;;;7.90;99.90;;;;;;5056705;28;20052;-65
2022/05/05 04:09:34;;;;;;;18.02;10.63;;;7.80;99.90;;;;;;5039316;28;20505;-64
2022/05/05 04:11:59;;;;;;;15.80;10.80;;;7.80;99.90;;;;;;5055613;28;20099;-66
2022/05/05 04:14:25;;;;;;;16.65;10.77;;;7.80;99.90;;;;;;5056458;28;20037;-64
2022/05/05 04:16:51;;;;;;;18.95;10.65;;;7.90;99.90;;;;;;5056591;28;20526;-66
2022/05/05 04:19:17;;;;;;;20.33;11.07;;;7.80;99.90;;;;;;5055571;28;20063;-65
2022/05/05 04:21:42;;;;;;;20.35;12.40;;;7.80;99.90;;;;;;5055354;28;20120;-64
2022/05/05 04:24:08;;;;;;;17.23;10.75;;;7.80;99.90;;;;;;5055557;28;20118;-65
2022/05/05 04:26:34;;;;;;;17.45;10.98;;;7.80;99.90;;;;;;5038810;28;20470;-65
2022/05/05 04:29:00;;;;;;;19.45;10.93;;;7.90;99.90;;;;;;5056211;28;20041;-66
2022/05/05 04:31:31;;;;;;;17.70;10.68;;;7.90;99.90;;;;;;5056269;28;20047;-66
2022/05/05 04:33:57;;;;;;;16.15;10.30;;;8.00;99.90;;;;;;5054767;28;20053;-66
2022/05/05 04:36:23;;;;;;;19.13;11.05;;;7.90;99.90;;;;;;5056112;28;20063;-65
2022/05/05 04:38:48;;;;;;;16.75;10.60;;;8.00;99.90;;;;;;5055313;28;20049;-66
2022/05/05 04:41:14;;;;;;;18.38;11.40;;;8.00;99.90;;;;;;5056182;28;20048;-66
2022/05/05 04:43:39;;;;;;;19.35;10.50;;;8.10;99.90;;;;;;5038886;28;20048;-66
2022/05/05 04:46:06;;;;;;;16.40;11.13;;;8.10;99.90;;;;;;5038342;28;20052;-66
2022/05/05 04:48:31;;;;;;;20.05;9.90;;;8.20;99.90;;;;;;5038491;28;20095;-65
2022/05/05 04:50:57;;;;;;;21.80;11.48;;;8.20;99.90;;;;;;5054830;28;20142;-65
2022/05/05 04:53:22;;;;;;;21.70;11.85;;;8.20;99.90;;;;;;5037290;28;20374;-65
2022/05/05 04:55:48;;;;;;;17.80;10.38;;;8.30;99.90;;;;;;5056093;28;20529;-65
2022/05/05 04:58:13;;;;;;;23.17;11.30;;;8.30;99.90;;;;;;5055698;28;20049;-65
2022/05/05 05:00:39;;;;;;;21.38;11.35;;;8.40;99.90;;;;;;5037864;28;20055;-66
2022/05/05 05:03:32;;;;;;;17.40;11.13;;;8.50;99.90;;;;;;5037349;28;20124;-65
2022/05/05 05:05:50;;;;;;;19.10;10.07;;;8.50;99.90;;;;;;5054505;28;20049;-66
2022/05/05 05:08:16;;;;;;;20.38;11.00;;;8.60;99.90;;;;;;5055631;28;20473;-65
2022/05/05 05:10:43;;;;;;;19.75;10.88;;;8.60;99.90;;;;;;5038003;28;20072;-65
2022/05/05 05:13:08;;;;;;;19.85;12.15;;;8.60;99.90;;;;;;5055628;28;20041;-66
2022/05/05 05:15:34;;;;;;;20.73;11.63;;;8.70;99.90;;;;;;5054926;28;20437;-66
2022/05/05 05:17:59;;;;;;;16.58;10.88;;;8.80;99.90;;;;;;5055274;28;20083;-66
2022/05/05 05:20:25;;;;;;;17.60;11.10;;;8.80;99.90;;;;;;5053774;28;20124;-65
2022/05/05 05:22:50;;;;;;;15.48;10.25;;;8.90;99.90;;;;;;5050154;28;20041;-64
2022/05/05 05:25:16;;;;;;;17.58;11.00;;;9.00;99.90;;;;;;5035402;28;20061;-65
2022/05/05 05:27:41;;;;;;;13.57;9.75;;;9.10;99.90;;;;;;5035523;28;20057;-65
2022/05/05 05:30:08;;;;;;;19.35;10.27;;;9.20;99.90;;;;;;5035060;28;20041;-65
2022/05/05 05:32:33;;;;;;;15.48;10.07;;;9.20;99.90;;;;;;5035072;28;20041;-65
2022/05/05 05:34:59;;;;;;;17.00;10.27;;;9.20;99.90;;;;;;5031673;28;20059;-64
2022/05/05 05:37:24;;;;;;;20.33;10.18;;;9.30;99.90;;;;;;5047243;28;20045;-65
2022/05/05 05:39:50;;;;;;;18.40;10.27;;;9.30;99.90;;;;;;5037417;28;20045;-65
2022/05/05 05:42:15;;;;;;;20.25;11.23;;;9.40;99.90;;;;;;5054887;28;20128;-64
2022/05/05 05:44:41;;;;;;;17.30;10.60;;;9.50;99.90;;;;;;5054924;28;20055;-66
2022/05/05 05:47:10;;;;;;;19.42;10.73;;;9.50;99.90;;;;;;5036272;28;20059;-67
2022/05/05 05:49:36;;;;;;;17.85;9.98;;;9.50;99.90;;;;;;5051958;28;20049;-65
2022/05/05 05:52:01;;;;;;;16.50;9.73;;;9.50;99.90;;;;;;5053996;28;20036;-66
2022/05/05 05:54:27;;;;;;;17.58;10.63;;;9.50;99.90;;;;;;5054450;28;20098;-66
2022/05/05 05:56:52;;;;;;;17.27;10.85;;;9.50;99.90;;;;;;5054665;28;20102;-66
2022/05/05 05:59:19;;;;;;;17.60;10.40;;;9.50;99.90;;;;;;5054696;28;20063;-65
2022/05/05 06:04:30;;;;;;;22.37;10.17;;;9.60;99.90;;;;;;5054609;28;20080;-66
2022/05/05 06:06:55;;;;;;;18.08;10.70;;;9.60;99.90;;;;;;5054029;28;20064;-65
2022/05/05 06:09:22;;;;;;;17.42;10.75;;;9.70;99.90;;;;;;5053349;28;20451;-66
2022/05/05 06:11:48;;;;;;;16.67;10.40;;;9.70;99.90;;;;;;5054185;28;20048;-65
2022/05/05 06:14:13;;;;;;;14.45;10.55;;;9.80;99.90;;;;;;5054590;28;20052;-70
2022/05/05 06:16:39;;;;;;;15.82;10.27;;;9.80;99.90;;;;;;5054513;28;20057;-67
2022/05/05 06:19:04;;;;;;;17.13;10.80;;;9.90;99.90;;;;;;5054560;28;20075;-67
2022/05/05 06:21:30;;;;;;;15.88;9.82;;;9.90;99.90;;;;;;5050260;28;20416;-68
2022/05/05 06:23:55;;;;;;;17.70;10.65;;;9.90;99.90;;;;;;5054670;28;20075;-65
2022/05/05 06:26:23;;;;;;;19.10;10.07;;;9.90;99.90;;;;;;5036919;28;20068;-65
2022/05/05 06:28:49;;;;;;;17.25;11.23;;;10.00;99.90;;;;;;5054661;28;20056;-65
2022/05/05 06:31:16;;;;;;;17.45;10.70;;;10.00;99.90;;;;;;5036261;28;20049;-65
2022/05/05 06:33:43;;;;;;;24.98;10.60;;;10.00;99.90;;;;;;5053692;28;20387;-66
2022/05/05 06:36:08;;;;;;;19.75;9.82;;;10.00;99.90;;;;;;5054521;28;20045;-68
2022/05/05 06:38:34;;;;;;;22.20;10.38;;;10.10;99.90;;;;;;5054507;28;20060;-64
2022/05/05 06:41:00;;;;;;;14.80;10.30;;;10.10;99.90;;;;;;5052571;28;20041;-66
2022/05/05 06:43:26;;;;;;;17.08;10.52;;;10.20;99.90;;;;;;5036779;28;20063;-66
2022/05/05 06:45:53;;;;;;;18.42;10.15;;;10.30;99.90;;;;;;5055437;28;20053;-64
2022/05/05 06:48:18;;;;;;;24.20;10.73;;;10.40;99.90;;;;;;5058051;28;20040;-65
2022/05/05 06:50:44;;;;;;;24.80;9.65;;;10.40;99.90;;;;;;5057988;28;20052;-65
2022/05/05 06:53:09;;;;;;;17.67;10.48;;;10.50;99.90;;;;;;5053041;28;20135;-68
2022/05/05 06:55:35;;;;;;;16.65;9.35;;;10.50;99.90;;;;;;5055122;28;20079;-69
2022/05/05 06:58:00;;;;;;;19.30;9.27;;;10.60;99.90;;;;;;5057682;28;20029;-64
2022/05/05 07:01:51;;;;;;;15.18;9.23;;;10.70;99.90;;;;;;5057485;28;20070;-69
2022/05/05 07:03:15;;;;;;;18.52;9.07;;;10.80;99.90;;;;;;5057164;28;20056;-69
2022/05/05 07:05:40;;;;;;;20.25;9.70;;;10.90;99.90;;;;;;5057075;28;20355;-67
2022/05/05 07:08:06;;;;;;;20.55;10.05;;;11.00;99.90;;;;;;5056497;28;20040;-69
2022/05/05 07:13:17;;;;;;;19.00;9.15;;;11.10;99.90;;;;;;5052472;28;20417;-66
2022/05/05 07:15:43;;;;;;;18.40;9.50;;;11.20;99.90;;;;;;5057103;28;20037;-66
2022/05/05 07:18:09;;;;;;;21.92;9.35;;;11.30;99.90;;;;;;5057470;28;20037;-66
2022/05/05 07:20:36;;;;;;;16.40;8.70;;;11.30;99.90;;;;;;5057206;28;20070;-68
2022/05/05 07:23:02;;;;;;;17.25;9.00;;;11.30;99.90;;;;;;5057373;28;20064;-67
2022/05/05 07:25:28;;;;;;;14.70;8.80;;;11.40;99.90;;;;;;5057065;28;20045;-65
2022/05/05 07:27:53;;;;;;;17.15;9.55;;;11.50;99.90;;;;;;5057034;28;20459;-64
2022/05/05 07:30:20;;;;;;;16.73;9.98;;;11.60;99.90;;;;;;5038029;28;20041;-64
2022/05/05 07:32:45;;;;;;;17.08;9.48;;;11.70;99.90;;;;;;5057388;28;20060;-64
2022/05/05 07:35:11;;;;;;;19.88;9.52;;;11.70;99.90;;;;;;5056377;28;20044;-69
2022/05/05 07:37:39;;;;;;;20.05;10.00;;;11.80;99.90;;;;;;5057137;28;20044;-64
2022/05/05 07:40:05;;;;;;;16.85;8.85;;;11.90;99.90;;;;;;5057277;28;20420;-65
2022/05/05 07:42:31;;;;;;;16.08;9.02;;;11.90;99.90;;;;;;5057172;28;20119;-64
2022/05/05 07:44:57;;;;;;;16.77;9.27;;;12.10;99.90;;;;;;5056472;28;20038;-68
2022/05/05 07:47:23;;;;;;;16.33;10.18;;;12.20;99.90;;;;;;5039536;28;20045;-65
2022/05/05 07:49:49;;;;;;;17.90;9.55;;;12.20;99.90;;;;;;5038868;28;20083;-67
2022/05/05 07:52:14;;;;;;;19.13;10.02;;;12.30;99.90;;;;;;5056227;28;20072;-67
2022/05/05 07:54:43;;;;;;;18.15;10.38;;;12.30;99.90;;;;;;5056889;28;20370;-66
2022/05/05 07:57:12;;;;;;;19.00;9.98;;;12.30;99.90;;;;;;5055855;28;20037;-70
2022/05/05 07:59:38;;;;;;;20.13;9.13;;;12.30;99.90;;;;;;5053079;28;20052;-69
2022/05/05 08:02:05;;;;;;;18.30;9.35;;;12.40;99.90;;;;;;5054453;28;20049;-66
2022/05/05 08:04:31;;;;;;;14.85;10.40;;;12.30;99.90;;;;;;5056359;28;20466;-67
2022/05/05 08:06:58;;;;;;;17.70;9.27;;;12.40;99.90;;;;;;5056488;28;20061;-70
2022/05/05 08:09:24;;;;;;;22.65;11.18;;;12.50;99.90;;;;;;5056105;28;20041;-67
2022/05/05 08:11:49;;;;;;;14.43;9.52;;;12.50;99.90;;;;;;5053708;28;20051;-69
2022/05/05 08:14:15;;;;;;;16.52;10.13;;;12.70;99.90;;;;;;5047841;28;20033;-67
2022/05/05 08:16:40;;;;;;;14.40;9.55;;;12.80;99.90;;;;;;5030208;28;20128;-71
2022/05/05 08:19:06;;;;;;;14.10;10.07;;;13.00;99.90;;;;;;5053652;28;20044;-69
2022/05/05 08:21:32;;;;;;;14.20;9.35;;;13.20;99.90;;;;;;5051831;28;20049;-68
2022/05/05 08:29:26;;;;;;;15.73;8.45;;;13.50;99.90;;;;;;5055002;28;20470;-67
2022/05/05 08:31:53;;;;;;;16.60;8.75;;;13.50;99.90;;;;;;5056009;28;20041;-65
2022/05/05 08:34:18;;;;;;;12.48;8.48;;;13.40;99.90;;;;;;5056209;28;20060;-66
2022/05/05 08:36:44;;;;;;;15.77;8.65;;;13.40;99.90;;;;;;5056097;28;20067;-66
2022/05/05 08:39:10;;;;;;;12.73;8.50;;;13.50;99.90;;;;;;5056178;28;20037;-66
2022/05/05 08:41:38;;;;;;;14.80;8.15;;;13.60;99.90;;;;;;5054516;28;20124;-67
2022/05/05 08:44:03;;;;;;;16.70;8.65;;;13.60;99.90;;;;;;5038087;28;20049;-67
2022/05/05 08:46:32;;;;;;;11.02;8.45;;;13.60;99.90;;;;;;5038279;28;20071;-67
2022/05/05 08:49:03;;;;;;;15.07;8.05;;;13.50;99.90;;;;;;5055886;28;20045;-67
2022/05/05 08:51:36;;;;;;;13.77;8.50;;;13.30;99.90;;;;;;5052497;28;20471;-66
2022/05/05 08:54:05;;;;;;;10.80;7.40;;;13.40;99.90;;;;;;5055372;28;20048;-66
2022/05/05 08:56:30;;;;;;;13.27;7.75;;;13.40;99.90;;;;;;5035720;28;20091;-65
2022/05/05 08:58:56;;;;;;;14.27;7.25;;;13.50;99.90;;;;;;5035482;28;20379;-67
2022/05/05 09:01:21;;;;;;;10.80;7.38;;;13.60;99.90;;;;;;5044952;28;20037;-68
2022/05/05 09:03:47;;;;;;;14.35;7.35;;;13.60;99.90;;;;;;5055023;28;20052;-67
2022/05/05 09:06:12;;;;;;;11.95;7.35;;;13.70;99.90;;;;;;5055490;28;20084;-70
2022/05/05 09:08:38;;;;;;;12.88;7.20;;;13.70;99.90;;;;;;5054988;28;20119;-70
2022/05/05 09:11:06;;;;;;;11.50;6.50;;;13.70;99.90;;;;;;5055343;28;20530;-68
2022/05/05 09:13:34;;;;;;;10.30;6.22;;;13.70;99.90;;;;;;5053961;28;20052;-69
2022/05/05 09:16:03;;;;;;;7.40;5.20;;;13.70;99.90;;;;;;5055472;28;20049;-69
2022/05/05 09:18:31;;;;;;;9.63;5.65;;;13.80;99.90;;;;;;5037698;28;20045;-68
2022/05/05 09:20:58;;;;;;;11.75;5.55;;;13.70;99.90;;;;;;5037921;28;20048;-68
2022/05/05 09:23:34;;;;;;;10.32;7.03;;;14.00;99.90;;;;;;5037827;28;20139;-67
2022/05/05 09:26:06;;;;;;;11.07;6.72;;;14.00;99.90;;;;;;5055298;28;20047;-68
2022/05/05 09:28:35;;;;;;;11.77;6.78;;;14.00;99.90;;;;;;5054331;28;20033;-69
2022/05/05 09:31:08;;;;;;;10.18;6.97;;;14.30;99.90;;;;;;5037327;28;20048;-68
2022/05/05 09:33:33;;;;;;;12.60;7.90;;;14.50;99.90;;;;;;5055096;28;20351;-69
2022/05/05 09:36:02;;;;;;;10.40;7.13;;;14.80;99.90;;;;;;5055175;28;20127;-69
2022/05/05 09:38:56;;;;;;;14.05;7.03;;;14.90;99.90;;;;;;5054973;28;20048;-69
2022/05/05 09:41:42;;;;;;;13.25;7.97;;;15.10;99.90;;;;;;5054297;28;20098;-69
2022/05/05 09:44:56;;;;;;;14.43;7.85;;;15.10;99.90;;;;;;5055014;28;20451;-70
2022/05/05 09:48:32;;;;;;;13.60;7.82;;;15.10;99.90;;;;;;4993380;28;20051;-68
2022/05/05 09:50:57;;;;;;;14.02;8.68;;;15.10;99.90;;;;;;4934885;29;20087;-69
2022/05/05 09:59:10;;;;;;;11.98;7.47;;;15.40;99.90;;;;;;4967709;28;20494;-71
2022/05/05 10:01:50;;;;;;;13.73;8.20;;;15.40;99.90;;;;;;5008241;28;20442;-73
2022/05/05 10:04:22;;;;;;;14.60;8.85;;;15.60;99.90;;;;;;5054294;28;20455;-72
2022/05/05 10:06:48;;;;;;;12.80;9.30;;;15.60;99.90;;;;;;5036598;28;20125;-67
2022/05/05 10:09:16;;;;;;;12.57;8.95;;;15.50;99.90;;;;;;5054223;28;20059;-68
2022/05/05 10:11:42;;;;;;;15.38;8.98;;;15.50;99.90;;;;;;5054434;28;20447;-68
2022/05/05 10:14:10;;;;;;;14.05;9.25;;;15.60;99.90;;;;;;5054453;28;20044;-68
2022/05/05 10:16:40;;;;;;;13.60;10.30;;;15.60;99.90;;;;;;5054477;28;20048;-68
2022/05/05 10:19:06;;;;;;;14.05;10.15;;;15.60;99.90;;;;;;5054216;28;20120;-69
2022/05/05 10:22:03;;;;;;;15.77;11.85;;;15.60;99.90;;;;;;5057676;28;20466;-68
2022/05/05 10:24:37;;;;;;;18.33;13.55;;;15.90;99.90;;;;;;5058464;28;20052;-68
2022/05/05 10:27:04;;;;;;;18.65;13.82;;;15.90;99.90;;;;;;5058621;28;20103;-68
2022/05/05 10:29:36;;;;;;;18.63;12.32;;;15.90;99.90;;;;;;5058451;28;20060;-67
2022/05/05 10:32:12;;;;;;;19.00;12.90;;;15.90;99.90;;;;;;5058044;28;20569;-69
2022/05/05 10:34:45;;;;;;;19.08;13.77;;;15.90;99.90;;;;;;5057108;28;20053;-68
2022/05/05 10:37:12;;;;;;;20.17;13.80;;;15.90;99.90;;;;;;5058296;28;20095;-68
2022/05/05 10:39:47;;;;;;;18.35;13.38;;;16.00;99.90;;;;;;5058464;28;20103;-70
2022/05/05 10:42:35;;;;;;;20.67;14.60;;;16.10;99.90;;;;;;5058519;28;20045;-68
2022/05/05 10:45:10;;;;;;;17.58;14.23;;;16.30;99.90;;;;;;5057839;28;20077;-71
2022/05/05 10:47:58;;;;;;;19.55;13.52;;;16.30;99.90;;;;;;5058015;28;20442;-69
2022/05/05 10:50:56;;;;;;;20.73;13.98;;;16.60;99.90;;;;;;5057123;28;20049;-67
2022/05/05 10:53:29;;;;;;;18.85;14.50;;;16.70;99.90;;;;;;5041335;28;20067;-69
2022/05/05 10:55:56;;;;;;;22.00;16.13;;;16.70;99.90;;;;;;5057891;28;20056;-69
2022/05/05 10:58:59;;;;;;;26.50;18.48;;;16.70;99.90;;;;;;5057838;28;20080;-70
2022/05/05 11:01:30;;;;;;;25.42;17.13;;;16.70;99.90;;;;;;5057442;28;20067;-69
2022/05/05 11:04:18;;;;;;;25.08;17.40;;;16.70;99.90;;;;;;5051254;28;20148;-69
2022/05/05 11:06:45;;;;;;;26.65;19.98;;;17.00;99.90;;;;;;5057757;28;20126;-68
2022/05/05 11:09:32;;;;;;;22.25;17.67;;;17.00;99.90;;;;;;5057689;28;20048;-68
2022/05/05 11:12:19;;;;;;;24.05;17.05;;;17.00;99.90;;;;;;5057235;28;20463;-66
2022/05/05 11:23:48;;;;;;;26.80;19.63;;;17.50;99.90;;;;;;5057556;28;20061;-67
2022/05/05 11:26:17;;;;;;;27.67;19.95;;;17.70;99.90;;;;;;5056552;28;20052;-66
2022/05/05 11:28:44;;;;;;;30.63;20.38;;;17.80;99.90;;;;;;5057215;28;20068;-67
2022/05/05 11:31:24;;;;;;;30.55;23.45;;;17.90;99.90;;;;;;5055873;28;20068;-66
2022/05/05 11:34:03;;;;;;;33.22;21.48;;;17.60;99.90;;;;;;5037076;28;20164;-67
2022/05/05 11:36:31;;;;;;;32.17;21.70;;;17.40;99.90;;;;;;5037353;28;20451;-66
2022/05/05 11:38:57;;;;;;;32.88;21.70;;;17.30;99.90;;;;;;5037430;28;20363;-66
2022/05/05 11:41:24;;;;;;;32.90;23.38;;;17.40;99.90;;;;;;5042495;28;20466;-66
2022/05/05 11:46:36;;;;;;;27.92;20.83;;;17.60;99.90;;;;;;5056175;28;20044;-66
2022/05/05 11:49:02;;;;;;;28.25;21.48;;;17.70;99.90;;;;;;5056747;28;20497;-68
2022/05/05 11:51:29;;;;;;;30.25;21.33;;;17.70;99.90;;;;;;5056960;28;20359;-67
2022/05/05 11:54:11;;;;;;;26.35;21.25;;;17.70;99.90;;;;;;5056445;28;20461;-67
2022/05/05 11:56:42;;;;;;;26.50;20.75;;;17.70;99.90;;;;;;5056704;28;20127;-66
2022/05/05 12:01:58;;;;;;;26.05;18.67;;;17.80;99.90;;;;;;5055101;28;20041;-67
2022/05/05 12:04:23;;;;;;;27.88;20.80;;;18.20;99.90;;;;;;5056661;28;20052;-66
2022/05/05 12:06:49;;;;;;;29.17;19.80;;;18.50;99.90;;;;;;5056847;28;20099;-66
2022/05/05 12:09:14;;;;;;;24.75;19.23;;;18.60;99.90;;;;;;5056834;28;20048;-67
2022/05/05 12:11:42;;;;;;;23.35;18.92;;;18.50;99.90;;;;;;5056457;28;20053;-67
2022/05/05 12:14:09;;;;;;;26.63;19.55;;;18.60;99.90;;;;;;5056643;28;20049;-66
2022/05/05 12:16:36;;;;;;;26.67;18.95;;;18.60;99.90;;;;;;5049161;28;20048;-67
2022/05/05 12:19:12;;;;;;;23.50;18.63;;;18.70;99.90;;;;;;5051957;28;20368;-66
2022/05/05 12:21:50;;;;;;;24.55;19.60;;;18.80;99.90;;;;;;5056524;28;20367;-66
2022/05/05 12:24:16;;;;;;;26.30;18.48;;;18.50;99.90;;;;;;5055986;28;20466;-66
2022/05/05 12:26:41;;;;;;;24.95;18.70;;;18.30;99.90;;;;;;5054737;28;20072;-66
2022/05/05 12:29:14;;;;;;;24.95;19.83;;;18.10;99.90;;;;;;5056362;28;20462;-66
2022/05/05 12:31:49;;;;;;;29.40;20.40;;;18.20;99.90;;;;;;5038337;28;20055;-67
2022/05/05 12:34:27;;;;;;;26.83;20.77;;;18.00;99.90;;;;;;5055965;28;20065;-67
2022/05/05 12:37:15;;;;;;;28.90;20.50;;;18.10;99.90;;;;;;5056246;28;20049;-67
2022/05/05 12:40:03;;;;;;;26.70;20.98;;;18.20;99.90;;;;;;5055341;28;20084;-67
2022/05/05 12:42:48;;;;;;;27.10;20.83;;;18.30;99.90;;;;;;5054192;28;20048;-67
2022/05/05 12:45:20;;;;;;;29.92;22.30;;;18.50;99.90;;;;;;5055530;28;20076;-67
2022/05/05 12:47:47;;;;;;;27.63;21.65;;;18.20;99.90;;;;;;5056155;28;20477;-67
2022/05/05 12:50:30;;;;;;;30.25;23.15;;;18.20;99.90;;;;;;5055695;28;20041;-68
2022/05/05 13:01:23;;;;;;;29.90;21.70;;;18.90;99.90;;;;;;5055527;28;20049;-67
2022/05/05 13:03:49;;;;;;;28.35;20.42;;;18.90;99.90;;;;;;5056071;28;20070;-67
2022/05/05 13:06:15;;;;;;;30.15;21.23;;;19.00;99.90;;;;;;5055828;28;20049;-67
2022/05/05 13:08:41;;;;;;;30.27;22.17;;;19.10;99.90;;;;;;5054734;28;20116;-67
2022/05/05 13:11:06;;;;;;;31.48;23.17;;;19.10;99.90;;;;;;5051692;28;20451;-67
2022/05/05 13:13:32;;;;;;;29.83;21.88;;;19.40;99.90;;;;;;5055424;28;20099;-66
2022/05/05 13:15:57;;;;;;;29.42;21.92;;;19.10;99.90;;;;;;5055316;28;20053;-67
2022/05/05 13:18:23;;;;;;;25.60;20.90;;;19.40;99.90;;;;;;5055270;28;20091;-67
2022/05/05 13:20:48;;;;;;;33.55;22.33;;;19.80;99.90;;;;;;5054886;28;20144;-67
2022/05/05 13:23:14;;;;;;;26.90;20.27;;;20.00;99.90;;;;;;5054468;28;20044;-66
2022/05/05 13:25:39;;;;;;;28.08;20.25;;;20.20;99.90;;;;;;5054867;28;20045;-67
2022/05/05 13:28:05;;;;;;;24.67;19.63;;;20.00;99.90;;;;;;5055098;28;20429;-68
2022/05/05 13:30:31;;;;;;;27.48;19.67;;;19.80;99.90;;;;;;5051590;28;20045;-67
2022/05/05 13:32:56;;;;;;;28.38;19.38;;;19.60;99.90;;;;;;5055174;28;20045;-67